sensor_id;sensor_type;location;lat;lon;timestamp;P1;durP1;ratioP1;P2;durP2;ratioP2
28587;SDS011;15787;49.662;10.162;2023-04-06T00:00:50;18.27;;;9.45;;
28587;SDS011;15787;49.662;10.162;2023-04-06T00:03:23;16.38;;;9.07;;
28587;SDS011;15787;49.662;10.162;2023-04-06T00:05:56;16.73;;;9.27;;
28587;SDS011;15787;49.662;10.162;2023-04-06T00:08:29;18.73;;;9.23;;
28587;SDS011;15787;49.662;10.162;2023-04-06T00:11:02;16.08;;;9.23;;
28587;SDS011;15787;49.662;10.162;2023-04-06T00:13:37;14.73;;;8.60;;
28587;SDS011;15787;49.662;10.162;2023-04-06T00:16:10;18.85;;;9.27;;
28587;SDS011;15787;49.662;10.162;2023-04-06T00:18:43;18.70;;;9.55;;
28587;SDS011;15787;49.662;10.162;2023-04-06T00:21:16;16.27;;;9.07;;
28587;SDS011;15787;49.662;10.162;2023-04-06T00:23:49;15.32;;;8.45;;
28587;SDS011;15787;49.662;10.162;2023-04-06T00:26:22;14.85;;;8.60;;
28587;SDS011;15787;49.662;10.162;2023-04-06T00:28:59;14.88;;;8.18;;
28587;SDS011;15787;49.662;10.162;2023-04-06T00:31:33;14.80;;;8.35;;
28587;SDS011;15787;49.662;10.162;2023-04-06T00:34:06;15.63;;;8.55;;
28587;SDS011;15787;49.662;10.162;2023-04-06T00:36:39;14.77;;;8.45;;
28587;SDS011;15787;49.662;10.162;2023-04-06T00:39:12;17.10;;;8.02;;
28587;SDS011;15787;49.662;10.162;2023-04-06T00:41:45;17.48;;;8.20;;
28587;SDS011;15787;49.662;10.162;2023-04-06T00:44:23;12.30;;;7.72;;
28587;SDS011;15787;49.662;10.162;2023-04-06T00:46:57;14.68;;;9.05;;
28587;SDS011;15787;49.662;10.162;2023-04-06T00:49:30;15.25;;;9.18;;
28587;SDS011;15787;49.662;10.162;2023-04-06T00:52:04;15.93;;;8.70;;
28587;SDS011;15787;49.662;10.162;2023-04-06T00:54:37;15.63;;;9.15;;
28587;SDS011;15787;49.662;10.162;2023-04-06T00:57:12;16.23;;;8.88;;
28587;SDS011;15787;49.662;10.162;2023-04-06T00:59:48;15.57;;;8.95;;
28587;SDS011;15787;49.662;10.162;2023-04-06T01:02:23;14.65;;;9.18;;
28587;SDS011;15787;49.662;10.162;2023-04-06T01:04:57;15.95;;;8.93;;
28587;SDS011;15787;49.662;10.162;2023-04-06T01:07:41;14.93;;;8.73;;
28587;SDS011;15787;49.662;10.162;2023-04-06T01:10:22;18.25;;;10.43;;
28587;SDS011;15787;49.662;10.162;2023-04-06T01:13:00;18.77;;;9.30;;
28587;SDS011;15787;49.662;10.162;2023-04-06T01:15:54;18.45;;;9.50;;
28587;SDS011;15787;49.662;10.162;2023-04-06T01:18:35;18.60;;;8.95;;
28587;SDS011;15787;49.662;10.162;2023-04-06T01:21:17;14.02;;;9.57;;
28587;SDS011;15787;49.662;10.162;2023-04-06T01:24:18;17.17;;;9.05;;
28587;SDS011;15787;49.662;10.162;2023-04-06T01:27:10;23.42;;;8.65;;
28587;SDS011;15787;49.662;10.162;2023-04-06T01:29:56;15.70;;;8.73;;
28587;SDS011;15787;49.662;10.162;2023-04-06T01:32:43;16.05;;;8.20;;
28587;SDS011;15787;49.662;10.162;2023-04-06T01:35:19;16.48;;;8.23;;
28587;SDS011;15787;49.662;10.162;2023-04-06T01:38:06;19.23;;;9.75;;
28587;SDS011;15787;49.662;10.162;2023-04-06T01:40:42;16.23;;;9.20;;
28587;SDS011;15787;49.662;10.162;2023-04-06T01:43:15;17.38;;;10.00;;
28587;SDS011;15787;49.662;10.162;2023-04-06T01:46:04;18.60;;;10.27;;
28587;SDS011;15787;49.662;10.162;2023-04-06T01:48:40;17.35;;;9.23;;
28587;SDS011;15787;49.662;10.162;2023-04-06T01:51:22;16.77;;;8.85;;
28587;SDS011;15787;49.662;10.162;2023-04-06T01:54:01;19.15;;;8.85;;
28587;SDS011;15787;49.662;10.162;2023-04-06T01:56:54;16.00;;;9.13;;
28587;SDS011;15787;49.662;10.162;2023-04-06T01:59:33;18.08;;;10.27;;
28587;SDS011;15787;49.662;10.162;2023-04-06T02:02:12;16.75;;;9.38;;
28587;SDS011;15787;49.662;10.162;2023-04-06T02:04:55;16.60;;;9.30;;
28587;SDS011;15787;49.662;10.162;2023-04-06T02:07:29;16.23;;;9.02;;
28587;SDS011;15787;49.662;10.162;2023-04-06T02:10:02;16.42;;;9.65;;
28587;SDS011;15787;49.662;10.162;2023-04-06T02:12:42;14.98;;;8.32;;
28587;SDS011;15787;49.662;10.162;2023-04-06T02:17:53;15.40;;;8.60;;
28587;SDS011;15787;49.662;10.162;2023-04-06T02:20:26;16.65;;;8.32;;
28587;SDS011;15787;49.662;10.162;2023-04-06T02:22:59;13.80;;;8.38;;
28587;SDS011;15787;49.662;10.162;2023-04-06T02:25:32;15.68;;;8.70;;
28587;SDS011;15787;49.662;10.162;2023-04-06T02:28:07;15.05;;;9.95;;
28587;SDS011;15787;49.662;10.162;2023-04-06T02:30:40;14.43;;;9.25;;
28587;SDS011;15787;49.662;10.162;2023-04-06T02:33:13;16.40;;;9.13;;
28587;SDS011;15787;49.662;10.162;2023-04-06T02:35:49;14.23;;;8.50;;
28587;SDS011;15787;49.662;10.162;2023-04-06T02:38:23;16.05;;;8.23;;
28587;SDS011;15787;49.662;10.162;2023-04-06T02:40:56;11.98;;;8.40;;
28587;SDS011;15787;49.662;10.162;2023-04-06T02:43:33;13.88;;;8.70;;
28587;SDS011;15787;49.662;10.162;2023-04-06T02:46:30;15.82;;;8.30;;
28587;SDS011;15787;49.662;10.162;2023-04-06T02:49:03;15.70;;;9.60;;
28587;SDS011;15787;49.662;10.162;2023-04-06T02:51:38;13.65;;;9.05;;
28587;SDS011;15787;49.662;10.162;2023-04-06T02:54:31;17.10;;;9.88;;
28587;SDS011;15787;49.662;10.162;2023-04-06T02:57:06;20.02;;;11.13;;
28587;SDS011;15787;49.662;10.162;2023-04-06T02:59:45;18.35;;;10.52;;
28587;SDS011;15787;49.662;10.162;2023-04-06T03:02:30;16.33;;;9.68;;
28587;SDS011;15787;49.662;10.162;2023-04-06T03:05:10;16.00;;;8.95;;
28587;SDS011;15787;49.662;10.162;2023-04-06T03:07:46;16.38;;;9.07;;
28587;SDS011;15787;49.662;10.162;2023-04-06T03:10:39;17.40;;;8.75;;
28587;SDS011;15787;49.662;10.162;2023-04-06T03:13:12;17.13;;;9.52;;
28587;SDS011;15787;49.662;10.162;2023-04-06T03:15:53;17.37;;;9.80;;
28587;SDS011;15787;49.662;10.162;2023-04-06T03:18:26;14.52;;;8.48;;
28587;SDS011;15787;49.662;10.162;2023-04-06T03:21:00;14.32;;;8.88;;
28587;SDS011;15787;49.662;10.162;2023-04-06T03:23:46;18.08;;;9.70;;
28587;SDS011;15787;49.662;10.162;2023-04-06T03:26:21;16.80;;;8.73;;
28587;SDS011;15787;49.662;10.162;2023-04-06T03:28:56;15.70;;;8.13;;
28587;SDS011;15787;49.662;10.162;2023-04-06T03:31:34;16.15;;;8.50;;
28587;SDS011;15787;49.662;10.162;2023-04-06T03:34:11;15.15;;;8.52;;
28587;SDS011;15787;49.662;10.162;2023-04-06T03:36:44;15.55;;;9.25;;
28587;SDS011;15787;49.662;10.162;2023-04-06T03:41:58;14.40;;;8.30;;
28587;SDS011;15787;49.662;10.162;2023-04-06T03:44:42;16.50;;;8.13;;
28587;SDS011;15787;49.662;10.162;2023-04-06T03:47:17;19.63;;;9.38;;
28587;SDS011;15787;49.662;10.162;2023-04-06T03:49:50;20.75;;;11.07;;
28587;SDS011;15787;49.662;10.162;2023-04-06T03:52:23;31.73;;;16.95;;
28587;SDS011;15787;49.662;10.162;2023-04-06T03:54:56;23.13;;;13.07;;
28587;SDS011;15787;49.662;10.162;2023-04-06T03:57:29;22.17;;;11.13;;
28587;SDS011;15787;49.662;10.162;2023-04-06T04:00:02;17.55;;;9.63;;
28587;SDS011;15787;49.662;10.162;2023-04-06T04:02:44;21.88;;;10.38;;
28587;SDS011;15787;49.662;10.162;2023-04-06T04:05:17;16.92;;;9.65;;
28587;SDS011;15787;49.662;10.162;2023-04-06T04:07:51;20.25;;;10.10;;
28587;SDS011;15787;49.662;10.162;2023-04-06T04:10:27;17.42;;;9.70;;
28587;SDS011;15787;49.662;10.162;2023-04-06T04:13:00;13.90;;;8.02;;
28587;SDS011;15787;49.662;10.162;2023-04-06T04:15:34;17.92;;;9.38;;
28587;SDS011;15787;49.662;10.162;2023-04-06T04:18:08;16.73;;;9.23;;
28587;SDS011;15787;49.662;10.162;2023-04-06T04:20:43;21.65;;;9.40;;
28587;SDS011;15787;49.662;10.162;2023-04-06T04:23:17;14.85;;;8.90;;
28587;SDS011;15787;49.662;10.162;2023-04-06T04:25:50;20.23;;;9.18;;
28587;SDS011;15787;49.662;10.162;2023-04-06T04:28:23;13.63;;;8.15;;
28587;SDS011;15787;49.662;10.162;2023-04-06T04:30:58;15.43;;;8.13;;
28587;SDS011;15787;49.662;10.162;2023-04-06T04:33:36;17.83;;;8.68;;
28587;SDS011;15787;49.662;10.162;2023-04-06T04:38:48;19.52;;;9.38;;
28587;SDS011;15787;49.662;10.162;2023-04-06T04:41:21;15.82;;;8.73;;
28587;SDS011;15787;49.662;10.162;2023-04-06T04:43:54;16.80;;;8.82;;
28587;SDS011;15787;49.662;10.162;2023-04-06T04:46:29;19.27;;;9.45;;
28587;SDS011;15787;49.662;10.162;2023-04-06T04:49:03;16.23;;;9.30;;
28587;SDS011;15787;49.662;10.162;2023-04-06T04:51:37;17.83;;;9.50;;
28587;SDS011;15787;49.662;10.162;2023-04-06T04:54:14;17.65;;;9.43;;
28587;SDS011;15787;49.662;10.162;2023-04-06T04:56:47;18.02;;;9.27;;
28587;SDS011;15787;49.662;10.162;2023-04-06T04:59:31;18.42;;;10.05;;
28587;SDS011;15787;49.662;10.162;2023-04-06T05:02:12;18.92;;;10.45;;
28587;SDS011;15787;49.662;10.162;2023-04-06T05:04:57;16.45;;;9.23;;
28587;SDS011;15787;49.662;10.162;2023-04-06T05:07:32;15.20;;;7.93;;
28587;SDS011;15787;49.662;10.162;2023-04-06T05:10:06;19.05;;;8.45;;
28587;SDS011;15787;49.662;10.162;2023-04-06T05:12:46;17.05;;;8.98;;
28587;SDS011;15787;49.662;10.162;2023-04-06T05:15:20;21.00;;;10.48;;
28587;SDS011;15787;49.662;10.162;2023-04-06T05:17:57;22.70;;;10.27;;
28587;SDS011;15787;49.662;10.162;2023-04-06T05:20:39;15.15;;;9.27;;
28587;SDS011;15787;49.662;10.162;2023-04-06T05:23:12;22.60;;;9.98;;
28587;SDS011;15787;49.662;10.162;2023-04-06T05:25:45;21.20;;;10.02;;
28587;SDS011;15787;49.662;10.162;2023-04-06T05:28:22;18.40;;;9.90;;
28587;SDS011;15787;49.662;10.162;2023-04-06T05:30:56;22.80;;;10.00;;
28587;SDS011;15787;49.662;10.162;2023-04-06T05:33:31;19.58;;;10.43;;
28587;SDS011;15787;49.662;10.162;2023-04-06T05:36:10;21.58;;;10.63;;
28587;SDS011;15787;49.662;10.162;2023-04-06T05:38:48;18.50;;;9.32;;
28587;SDS011;15787;49.662;10.162;2023-04-06T05:41:42;29.33;;;12.25;;
28587;SDS011;15787;49.662;10.162;2023-04-06T05:44:16;20.75;;;10.52;;
28587;SDS011;15787;49.662;10.162;2023-04-06T05:46:54;19.63;;;10.90;;
28587;SDS011;15787;49.662;10.162;2023-04-06T05:49:27;20.27;;;11.05;;
28587;SDS011;15787;49.662;10.162;2023-04-06T05:52:01;20.58;;;11.75;;
28587;SDS011;15787;49.662;10.162;2023-04-06T05:54:36;19.77;;;10.05;;
28587;SDS011;15787;49.662;10.162;2023-04-06T05:57:09;18.23;;;9.95;;
28587;SDS011;15787;49.662;10.162;2023-04-06T05:59:43;21.17;;;10.90;;
28587;SDS011;15787;49.662;10.162;2023-04-06T06:02:18;21.50;;;10.40;;
28587;SDS011;15787;49.662;10.162;2023-04-06T06:04:54;20.98;;;10.70;;
28587;SDS011;15787;49.662;10.162;2023-04-06T06:07:30;19.63;;;10.38;;
28587;SDS011;15787;49.662;10.162;2023-04-06T06:10:06;19.17;;;10.77;;
28587;SDS011;15787;49.662;10.162;2023-04-06T06:12:41;22.48;;;12.38;;
28587;SDS011;15787;49.662;10.162;2023-04-06T06:15:14;24.52;;;12.85;;
28587;SDS011;15787;49.662;10.162;2023-04-06T06:17:51;23.48;;;11.60;;
28587;SDS011;15787;49.662;10.162;2023-04-06T06:20:24;18.35;;;10.40;;
28587;SDS011;15787;49.662;10.162;2023-04-06T06:22:58;17.00;;;10.00;;
28587;SDS011;15787;49.662;10.162;2023-04-06T06:25:31;17.52;;;9.63;;
28587;SDS011;15787;49.662;10.162;2023-04-06T06:28:06;14.35;;;9.23;;
28587;SDS011;15787;49.662;10.162;2023-04-06T06:30:39;23.50;;;10.43;;
28587;SDS011;15787;49.662;10.162;2023-04-06T06:33:13;15.73;;;8.65;;
28587;SDS011;15787;49.662;10.162;2023-04-06T06:35:46;14.20;;;8.88;;
28587;SDS011;15787;49.662;10.162;2023-04-06T06:38:20;14.93;;;9.20;;
28587;SDS011;15787;49.662;10.162;2023-04-06T06:40:55;16.70;;;8.82;;
28587;SDS011;15787;49.662;10.162;2023-04-06T06:43:30;18.15;;;10.93;;
28587;SDS011;15787;49.662;10.162;2023-04-06T06:46:06;17.27;;;9.38;;
28587;SDS011;15787;49.662;10.162;2023-04-06T06:48:39;13.65;;;8.60;;
28587;SDS011;15787;49.662;10.162;2023-04-06T06:51:12;16.23;;;9.38;;
28587;SDS011;15787;49.662;10.162;2023-04-06T06:53:47;19.65;;;9.40;;
28587;SDS011;15787;49.662;10.162;2023-04-06T06:56:20;14.88;;;9.18;;
28587;SDS011;15787;49.662;10.162;2023-04-06T06:58:54;13.88;;;8.75;;
28587;SDS011;15787;49.662;10.162;2023-04-06T07:01:27;15.05;;;9.13;;
28587;SDS011;15787;49.662;10.162;2023-04-06T07:04:00;15.23;;;9.48;;
28587;SDS011;15787;49.662;10.162;2023-04-06T07:06:34;21.05;;;10.20;;
28587;SDS011;15787;49.662;10.162;2023-04-06T07:09:09;14.77;;;8.82;;
28587;SDS011;15787;49.662;10.162;2023-04-06T07:11:43;12.80;;;8.73;;
28587;SDS011;15787;49.662;10.162;2023-04-06T07:14:17;15.38;;;8.52;;
28587;SDS011;15787;49.662;10.162;2023-04-06T07:16:50;16.50;;;9.10;;
28587;SDS011;15787;49.662;10.162;2023-04-06T07:19:23;16.52;;;8.82;;
28587;SDS011;15787;49.662;10.162;2023-04-06T07:21:56;13.73;;;8.45;;
28587;SDS011;15787;49.662;10.162;2023-04-06T07:24:31;16.00;;;8.57;;
28587;SDS011;15787;49.662;10.162;2023-04-06T07:27:04;14.73;;;8.57;;
28587;SDS011;15787;49.662;10.162;2023-04-06T07:29:37;20.38;;;10.25;;
28587;SDS011;15787;49.662;10.162;2023-04-06T07:32:11;14.18;;;9.25;;
28587;SDS011;15787;49.662;10.162;2023-04-06T07:34:44;14.98;;;9.32;;
28587;SDS011;15787;49.662;10.162;2023-04-06T07:37:18;12.63;;;9.27;;
28587;SDS011;15787;49.662;10.162;2023-04-06T07:39:53;16.63;;;9.60;;
28587;SDS011;15787;49.662;10.162;2023-04-06T07:42:26;17.75;;;9.27;;
28587;SDS011;15787;49.662;10.162;2023-04-06T07:44:59;14.95;;;8.80;;
28587;SDS011;15787;49.662;10.162;2023-04-06T07:47:31;15.23;;;9.60;;
28587;SDS011;15787;49.662;10.162;2023-04-06T07:50:05;18.27;;;9.07;;
28587;SDS011;15787;49.662;10.162;2023-04-06T07:52:39;14.73;;;9.00;;
28587;SDS011;15787;49.662;10.162;2023-04-06T07:55:14;15.68;;;9.98;;
28587;SDS011;15787;49.662;10.162;2023-04-06T07:57:47;15.25;;;9.10;;
28587;SDS011;15787;49.662;10.162;2023-04-06T08:00:20;14.35;;;9.40;;
28587;SDS011;15787;49.662;10.162;2023-04-06T08:02:54;15.88;;;9.63;;
28587;SDS011;15787;49.662;10.162;2023-04-06T08:05:27;16.13;;;9.25;;
28587;SDS011;15787;49.662;10.162;2023-04-06T08:08:00;14.93;;;9.48;;
28587;SDS011;15787;49.662;10.162;2023-04-06T08:10:34;17.02;;;9.27;;
28587;SDS011;15787;49.662;10.162;2023-04-06T08:13:07;13.02;;;8.38;;
28587;SDS011;15787;49.662;10.162;2023-04-06T08:15:40;16.42;;;9.60;;
28587;SDS011;15787;49.662;10.162;2023-04-06T08:18:13;14.88;;;9.00;;
28587;SDS011;15787;49.662;10.162;2023-04-06T08:20:46;13.95;;;9.00;;
28587;SDS011;15787;49.662;10.162;2023-04-06T08:23:20;15.57;;;8.68;;
28587;SDS011;15787;49.662;10.162;2023-04-06T08:25:54;13.25;;;9.05;;
28587;SDS011;15787;49.662;10.162;2023-04-06T08:28:27;15.98;;;8.60;;
28587;SDS011;15787;49.662;10.162;2023-04-06T08:31:02;16.60;;;9.95;;
28587;SDS011;15787;49.662;10.162;2023-04-06T08:33:36;14.00;;;8.65;;
28587;SDS011;15787;49.662;10.162;2023-04-06T08:36:11;12.40;;;8.57;;
28587;SDS011;15787;49.662;10.162;2023-04-06T08:38:45;14.90;;;8.38;;
28587;SDS011;15787;49.662;10.162;2023-04-06T08:41:19;15.77;;;8.82;;
28587;SDS011;15787;49.662;10.162;2023-04-06T08:43:53;11.25;;;7.70;;
28587;SDS011;15787;49.662;10.162;2023-04-06T08:46:30;15.77;;;9.20;;
28587;SDS011;15787;49.662;10.162;2023-04-06T08:49:04;15.52;;;8.98;;
28587;SDS011;15787;49.662;10.162;2023-04-06T08:51:38;13.18;;;8.50;;
28587;SDS011;15787;49.662;10.162;2023-04-06T08:54:13;15.55;;;8.52;;
28587;SDS011;15787;49.662;10.162;2023-04-06T08:56:47;14.75;;;8.32;;
28587;SDS011;15787;49.662;10.162;2023-04-06T08:59:20;14.20;;;8.88;;
28587;SDS011;15787;49.662;10.162;2023-04-06T09:01:54;14.13;;;9.10;;
28587;SDS011;15787;49.662;10.162;2023-04-06T09:04:28;13.13;;;8.73;;
28587;SDS011;15787;49.662;10.162;2023-04-06T09:07:01;14.82;;;9.45;;
28587;SDS011;15787;49.662;10.162;2023-04-06T09:09:34;12.25;;;8.27;;
28587;SDS011;15787;49.662;10.162;2023-04-06T09:12:08;13.82;;;8.88;;
28587;SDS011;15787;49.662;10.162;2023-04-06T09:14:43;15.38;;;8.50;;
28587;SDS011;15787;49.662;10.162;2023-04-06T09:17:20;14.05;;;8.55;;
28587;SDS011;15787;49.662;10.162;2023-04-06T09:19:54;13.18;;;8.55;;
28587;SDS011;15787;49.662;10.162;2023-04-06T09:22:34;14.65;;;9.18;;
28587;SDS011;15787;49.662;10.162;2023-04-06T09:25:08;13.33;;;9.20;;
28587;SDS011;15787;49.662;10.162;2023-04-06T09:27:43;13.85;;;9.32;;
28587;SDS011;15787;49.662;10.162;2023-04-06T09:30:16;15.18;;;8.85;;
28587;SDS011;15787;49.662;10.162;2023-04-06T09:32:50;11.95;;;8.18;;
28587;SDS011;15787;49.662;10.162;2023-04-06T09:35:24;14.95;;;9.18;;
28587;SDS011;15787;49.662;10.162;2023-04-06T09:37:58;16.45;;;9.50;;
28587;SDS011;15787;49.662;10.162;2023-04-06T09:40:30;16.05;;;9.52;;
28587;SDS011;15787;49.662;10.162;2023-04-06T09:43:05;11.43;;;8.32;;
28587;SDS011;15787;49.662;10.162;2023-04-06T09:45:38;14.30;;;9.25;;
28587;SDS011;15787;49.662;10.162;2023-04-06T09:48:11;15.40;;;9.80;;
28587;SDS011;15787;49.662;10.162;2023-04-06T09:50:44;17.17;;;9.85;;
28587;SDS011;15787;49.662;10.162;2023-04-06T09:53:17;15.02;;;9.38;;
28587;SDS011;15787;49.662;10.162;2023-04-06T09:55:51;16.40;;;9.57;;
28587;SDS011;15787;49.662;10.162;2023-04-06T09:58:33;17.83;;;9.35;;
28587;SDS011;15787;49.662;10.162;2023-04-06T10:01:09;13.07;;;7.97;;
28587;SDS011;15787;49.662;10.162;2023-04-06T10:03:47;17.15;;;9.93;;
28587;SDS011;15787;49.662;10.162;2023-04-06T10:06:24;15.20;;;10.13;;
28587;SDS011;15787;49.662;10.162;2023-04-06T10:09:01;13.90;;;9.30;;
28587;SDS011;15787;49.662;10.162;2023-04-06T10:11:36;14.18;;;8.95;;
28587;SDS011;15787;49.662;10.162;2023-04-06T10:14:11;14.27;;;8.82;;
28587;SDS011;15787;49.662;10.162;2023-04-06T10:16:44;14.95;;;9.55;;
28587;SDS011;15787;49.662;10.162;2023-04-06T10:19:22;14.52;;;9.43;;
28587;SDS011;15787;49.662;10.162;2023-04-06T10:22:00;13.15;;;8.63;;
28587;SDS011;15787;49.662;10.162;2023-04-06T10:24:37;13.98;;;8.93;;
28587;SDS011;15787;49.662;10.162;2023-04-06T10:27:10;12.73;;;8.90;;
28587;SDS011;15787;49.662;10.162;2023-04-06T10:29:45;12.65;;;8.43;;
28587;SDS011;15787;49.662;10.162;2023-04-06T10:32:20;15.95;;;8.68;;
28587;SDS011;15787;49.662;10.162;2023-04-06T10:34:53;14.05;;;8.63;;
28587;SDS011;15787;49.662;10.162;2023-04-06T10:37:47;12.85;;;7.75;;
28587;SDS011;15787;49.662;10.162;2023-04-06T10:40:23;12.85;;;8.38;;
28587;SDS011;15787;49.662;10.162;2023-04-06T10:43:06;12.35;;;8.77;;
28587;SDS011;15787;49.662;10.162;2023-04-06T10:45:42;14.60;;;9.30;;
28587;SDS011;15787;49.662;10.162;2023-04-06T10:48:15;15.38;;;9.02;;
28587;SDS011;15787;49.662;10.162;2023-04-06T10:50:49;27.38;;;10.25;;
28587;SDS011;15787;49.662;10.162;2023-04-06T10:53:24;15.55;;;9.23;;
28587;SDS011;15787;49.662;10.162;2023-04-06T10:55:58;15.40;;;9.15;;
28587;SDS011;15787;49.662;10.162;2023-04-06T10:58:32;17.75;;;8.45;;
28587;SDS011;15787;49.662;10.162;2023-04-06T11:01:07;12.45;;;7.65;;
28587;SDS011;15787;49.662;10.162;2023-04-06T11:03:43;13.75;;;8.40;;
28587;SDS011;15787;49.662;10.162;2023-04-06T11:06:17;13.27;;;8.25;;
28587;SDS011;15787;49.662;10.162;2023-04-06T11:08:51;11.80;;;7.38;;
28587;SDS011;15787;49.662;10.162;2023-04-06T11:11:25;15.63;;;9.25;;
28587;SDS011;15787;49.662;10.162;2023-04-06T11:13:59;14.85;;;9.50;;
28587;SDS011;15787;49.662;10.162;2023-04-06T11:16:33;12.52;;;8.32;;
28587;SDS011;15787;49.662;10.162;2023-04-06T11:19:06;13.00;;;8.60;;
28587;SDS011;15787;49.662;10.162;2023-04-06T11:21:41;13.40;;;9.23;;
28587;SDS011;15787;49.662;10.162;2023-04-06T11:24:18;12.75;;;8.30;;
28587;SDS011;15787;49.662;10.162;2023-04-06T11:26:53;14.05;;;7.85;;
28587;SDS011;15787;49.662;10.162;2023-04-06T11:29:28;14.30;;;8.90;;
28587;SDS011;15787;49.662;10.162;2023-04-06T11:32:04;13.15;;;8.68;;
28587;SDS011;15787;49.662;10.162;2023-04-06T11:34:39;14.90;;;9.20;;
28587;SDS011;15787;49.662;10.162;2023-04-06T11:37:12;14.20;;;8.65;;
28587;SDS011;15787;49.662;10.162;2023-04-06T11:39:46;13.48;;;8.48;;
28587;SDS011;15787;49.662;10.162;2023-04-06T11:42:21;17.00;;;9.10;;
28587;SDS011;15787;49.662;10.162;2023-04-06T11:44:55;12.05;;;7.97;;
28587;SDS011;15787;49.662;10.162;2023-04-06T11:47:31;13.68;;;8.38;;
28587;SDS011;15787;49.662;10.162;2023-04-06T11:50:06;14.88;;;9.38;;
28587;SDS011;15787;49.662;10.162;2023-04-06T11:52:40;16.65;;;8.82;;
28587;SDS011;15787;49.662;10.162;2023-04-06T11:55:14;13.75;;;8.60;;
28587;SDS011;15787;49.662;10.162;2023-04-06T11:57:48;14.85;;;9.68;;
28587;SDS011;15787;49.662;10.162;2023-04-06T12:00:23;16.55;;;9.07;;
28587;SDS011;15787;49.662;10.162;2023-04-06T12:02:57;12.68;;;8.48;;
28587;SDS011;15787;49.662;10.162;2023-04-06T12:05:32;12.90;;;8.32;;
28587;SDS011;15787;49.662;10.162;2023-04-06T12:08:05;11.75;;;7.55;;
28587;SDS011;15787;49.662;10.162;2023-04-06T12:10:38;11.90;;;8.70;;
28587;SDS011;15787;49.662;10.162;2023-04-06T12:13:11;15.32;;;9.27;;
28587;SDS011;15787;49.662;10.162;2023-04-06T12:15:44;13.70;;;8.25;;
28587;SDS011;15787;49.662;10.162;2023-04-06T12:18:18;12.60;;;8.77;;
28587;SDS011;15787;49.662;10.162;2023-04-06T12:20:51;18.15;;;9.38;;
28587;SDS011;15787;49.662;10.162;2023-04-06T12:23:24;14.20;;;9.13;;
28587;SDS011;15787;49.662;10.162;2023-04-06T12:25:57;13.85;;;8.88;;
28587;SDS011;15787;49.662;10.162;2023-04-06T12:28:30;13.73;;;9.13;;
28587;SDS011;15787;49.662;10.162;2023-04-06T12:31:02;13.75;;;8.82;;
28587;SDS011;15787;49.662;10.162;2023-04-06T12:33:37;13.32;;;8.98;;
28587;SDS011;15787;49.662;10.162;2023-04-06T12:36:11;14.85;;;8.60;;
28587;SDS011;15787;49.662;10.162;2023-04-06T12:38:45;11.73;;;8.45;;
28587;SDS011;15787;49.662;10.162;2023-04-06T12:41:19;12.25;;;7.93;;
28587;SDS011;15787;49.662;10.162;2023-04-06T12:43:52;12.93;;;8.32;;
28587;SDS011;15787;49.662;10.162;2023-04-06T12:46:25;13.57;;;7.95;;
28587;SDS011;15787;49.662;10.162;2023-04-06T12:48:59;14.38;;;8.93;;
28587;SDS011;15787;49.662;10.162;2023-04-06T12:51:32;10.18;;;7.10;;
28587;SDS011;15787;49.662;10.162;2023-04-06T12:54:05;12.18;;;7.85;;
28587;SDS011;15787;49.662;10.162;2023-04-06T12:56:38;12.13;;;8.18;;
28587;SDS011;15787;49.662;10.162;2023-04-06T12:59:11;11.65;;;8.00;;
28587;SDS011;15787;49.662;10.162;2023-04-06T13:01:44;11.77;;;8.00;;
28587;SDS011;15787;49.662;10.162;2023-04-06T13:04:19;11.52;;;8.38;;
28587;SDS011;15787;49.662;10.162;2023-04-06T13:06:52;11.70;;;8.23;;
28587;SDS011;15787;49.662;10.162;2023-04-06T13:09:24;10.52;;;7.85;;
28587;SDS011;15787;49.662;10.162;2023-04-06T13:11:57;12.82;;;7.75;;
28587;SDS011;15787;49.662;10.162;2023-04-06T13:14:30;11.90;;;8.07;;
28587;SDS011;15787;49.662;10.162;2023-04-06T13:17:03;11.18;;;7.90;;
28587;SDS011;15787;49.662;10.162;2023-04-06T13:19:38;12.38;;;8.57;;
28587;SDS011;15787;49.662;10.162;2023-04-06T13:22:11;11.00;;;7.50;;
28587;SDS011;15787;49.662;10.162;2023-04-06T13:24:44;12.70;;;8.00;;
28587;SDS011;15787;49.662;10.162;2023-04-06T13:27:17;12.68;;;8.43;;
28587;SDS011;15787;49.662;10.162;2023-04-06T13:29:50;14.85;;;8.68;;
28587;SDS011;15787;49.662;10.162;2023-04-06T13:32:23;13.57;;;7.63;;
28587;SDS011;15787;49.662;10.162;2023-04-06T13:34:58;14.23;;;8.63;;
28587;SDS011;15787;49.662;10.162;2023-04-06T13:37:31;11.55;;;7.70;;
28587;SDS011;15787;49.662;10.162;2023-04-06T13:40:05;10.57;;;8.02;;
28587;SDS011;15787;49.662;10.162;2023-04-06T13:42:38;9.88;;;7.20;;
28587;SDS011;15787;49.662;10.162;2023-04-06T13:45:12;12.02;;;8.18;;
28587;SDS011;15787;49.662;10.162;2023-04-06T13:47:46;11.40;;;7.95;;
28587;SDS011;15787;49.662;10.162;2023-04-06T13:50:20;13.52;;;8.57;;
28587;SDS011;15787;49.662;10.162;2023-04-06T13:52:53;12.52;;;8.40;;
28587;SDS011;15787;49.662;10.162;2023-04-06T13:55:26;12.40;;;8.25;;
28587;SDS011;15787;49.662;10.162;2023-04-06T13:57:59;14.75;;;8.70;;
28587;SDS011;15787;49.662;10.162;2023-04-06T14:00:31;15.77;;;8.40;;
28587;SDS011;15787;49.662;10.162;2023-04-06T14:03:05;13.35;;;7.88;;
28587;SDS011;15787;49.662;10.162;2023-04-06T14:05:40;13.07;;;8.32;;
28587;SDS011;15787;49.662;10.162;2023-04-06T14:08:12;13.15;;;7.35;;
28587;SDS011;15787;49.662;10.162;2023-04-06T14:10:45;13.85;;;7.78;;
28587;SDS011;15787;49.662;10.162;2023-04-06T14:13:18;12.93;;;8.07;;
28587;SDS011;15787;49.662;10.162;2023-04-06T14:15:54;11.00;;;7.82;;
28587;SDS011;15787;49.662;10.162;2023-04-06T14:18:28;13.73;;;8.52;;
28587;SDS011;15787;49.662;10.162;2023-04-06T14:21:04;12.27;;;7.82;;
28587;SDS011;15787;49.662;10.162;2023-04-06T14:23:36;10.52;;;7.75;;
28587;SDS011;15787;49.662;10.162;2023-04-06T14:26:10;10.68;;;7.30;;
28587;SDS011;15787;49.662;10.162;2023-04-06T14:28:44;12.82;;;7.72;;
28587;SDS011;15787;49.662;10.162;2023-04-06T14:31:18;12.32;;;8.90;;
28587;SDS011;15787;49.662;10.162;2023-04-06T14:33:51;12.48;;;8.18;;
28587;SDS011;15787;49.662;10.162;2023-04-06T14:36:25;11.48;;;7.47;;
28587;SDS011;15787;49.662;10.162;2023-04-06T14:39:00;10.32;;;7.57;;
28587;SDS011;15787;49.662;10.162;2023-04-06T14:41:33;15.50;;;7.88;;
28587;SDS011;15787;49.662;10.162;2023-04-06T14:44:06;12.70;;;8.27;;
28587;SDS011;15787;49.662;10.162;2023-04-06T14:46:43;10.93;;;7.40;;
28587;SDS011;15787;49.662;10.162;2023-04-06T14:49:16;10.63;;;7.35;;
28587;SDS011;15787;49.662;10.162;2023-04-06T14:51:50;11.93;;;7.95;;
28587;SDS011;15787;49.662;10.162;2023-04-06T14:54:24;13.48;;;7.50;;
28587;SDS011;15787;49.662;10.162;2023-04-06T14:56:57;14.57;;;7.95;;
28587;SDS011;15787;49.662;10.162;2023-04-06T14:59:30;11.50;;;7.63;;
28587;SDS011;15787;49.662;10.162;2023-04-06T15:02:08;12.02;;;7.35;;
28587;SDS011;15787;49.662;10.162;2023-04-06T15:04:41;11.65;;;7.60;;
28587;SDS011;15787;49.662;10.162;2023-04-06T15:07:15;11.93;;;7.95;;
28587;SDS011;15787;49.662;10.162;2023-04-06T15:09:48;14.32;;;8.25;;
28587;SDS011;15787;49.662;10.162;2023-04-06T15:12:20;12.07;;;8.38;;
28587;SDS011;15787;49.662;10.162;2023-04-06T15:14:53;11.27;;;7.72;;